Time;durP1;ratioP1;P1;durP2;ratioP2;P2;SDS_P1;SDS_P2;PMS_P1;PMS_P2;Temp;Humidity;BMP_temperature;BMP_pressure;BME280_temperature;BME280_humidity;BME280_pressure;Samples;Min_cycle;Max_cycle;Signal;HPM_P1;HPM_P2
2022/04/14 00:00:57;;;;;;;39.17;34.25;;;;;;;11.73;86.80;101903.84;5075854;28;20055;-68
2022/04/14 00:03:22;;;;;;;42.65;34.55;;;;;;;11.80;87.04;101899.09;5071326;28;20580;-68
2022/04/14 00:05:48;;;;;;;39.70;35.10;;;;;;;11.82;86.73;101898.06;5071285;28;20024;-68
2022/04/14 00:08:14;;;;;;;39.65;35.45;;;;;;;11.76;87.05;101902.81;5074554;28;20052;-69
2022/04/14 00:10:39;;;;;;;36.63;32.70;;;;;;;11.66;87.41;101896.25;5071230;28;20116;-68
2022/04/14 00:13:06;;;;;;;42.92;36.30;;;;;;;11.70;87.39;101898.66;5085337;28;20028;-68
2022/04/14 00:15:32;;;;;;;39.83;34.85;;;;;;;11.65;87.26;101894.50;5071549;28;20119;-68
2022/04/14 00:17:59;;;;;;;43.58;37.38;;;;;;;11.60;87.95;101886.78;5072843;28;20150;-68
2022/04/14 00:20:25;;;;;;;41.20;34.50;;;;;;;11.74;87.47;101894.94;5062934;28;20490;-68
2022/04/14 00:22:51;;;;;;;38.17;33.67;;;;;;;11.75;87.20;101890.44;5079152;28;20061;-68
2022/04/14 00:25:17;;;;;;;38.95;34.67;;;;;;;11.76;87.31;101887.69;5062311;28;20035;-68
2022/04/14 00:27:43;;;;;;;39.20;34.97;;;;;;;11.71;86.95;101884.41;5071574;28;20032;-68
2022/04/14 00:30:10;;;;;;;39.22;35.03;;;;;;;11.62;87.38;101884.00;5043427;28;20101;-68
2022/04/14 00:32:38;;;;;;;41.60;35.90;;;;;;;11.62;87.96;101882.22;5073684;28;20028;-68
2022/04/14 00:35:03;;;;;;;39.72;35.42;;;;;;;11.69;86.86;101882.78;5085515;28;20032;-68
2022/04/14 00:37:32;;;;;;;41.63;36.67;;;;;;;11.71;88.38;101883.56;5072180;28;20449;-68
2022/04/14 00:39:57;;;;;;;38.60;34.40;;;;;;;11.69;87.42;101882.78;5085717;28;20028;-68
2022/04/14 00:42:23;;;;;;;39.78;35.53;;;;;;;11.60;88.59;101873.44;5071736;28;20560;-68
2022/04/14 00:44:54;;;;;;;42.25;35.67;;;;;;;11.69;87.95;101880.09;5062368;28;20499;-68
2022/04/14 00:47:19;;;;;;;40.33;35.00;;;;;;;11.63;88.02;101883.94;5070732;28;20445;-68
2022/04/14 00:49:47;;;;;;;41.83;36.50;;;;;;;11.62;87.91;101884.00;5071659;28;20051;-68
2022/04/14 00:52:16;;;;;;;38.35;33.90;;;;;;;11.52;87.74;101875.63;5084501;28;20024;-68
2022/04/14 00:54:41;;;;;;;41.15;36.67;;;;;;;11.54;88.66;101887.94;5069371;28;20090;-68
2022/04/14 00:57:09;;;;;;;37.45;33.42;;;;;;;11.54;88.07;101885.28;5069833;28;20029;-68
2022/04/14 00:59:41;;;;;;;37.92;33.97;;;;;;;11.56;87.93;101879.88;5071888;28;20119;-68
2022/04/14 01:02:07;;;;;;;39.63;35.42;;;;;;;11.60;88.27;101881.44;5056358;28;20032;-68
2022/04/14 01:04:33;;;;;;;37.63;32.95;;;;;;;11.51;88.36;101888.09;5071499;28;20111;-68
2022/04/14 01:06:59;;;;;;;37.10;33.10;;;;;;;11.56;88.21;101879.88;5088498;28;20127;-68
2022/04/14 01:09:26;;;;;;;38.53;33.58;;;;;;;11.49;88.25;101876.63;5080469;28;20490;-68
2022/04/14 01:11:56;;;;;;;37.58;33.58;;;;;;;11.58;88.81;101884.16;5079218;28;20087;-68
2022/04/14 01:14:29;;;;;;;37.70;33.58;;;;;;;11.58;88.00;101891.31;5070718;28;20052;-68
2022/04/14 01:16:56;;;;;;;41.75;35.40;;;;;;;11.41;88.54;101875.28;5081068;28;20391;-68
2022/04/14 01:19:25;;;;;;;35.47;31.67;;;;;;;11.48;88.16;101882.91;5075289;28;20031;-68
2022/04/14 01:22:00;;;;;;;38.25;34.20;;;;;;;11.49;88.23;101881.97;5069936;28;20051;-68
2022/04/14 01:24:26;;;;;;;36.33;32.40;;;;;;;11.45;87.82;101884.88;5081287;28;20020;-68
2022/04/14 01:26:53;;;;;;;35.20;31.30;;;;;;;11.47;87.22;101880.31;5090425;28;20024;-68
2022/04/14 01:29:23;;;;;;;34.63;30.48;;;;;;;11.36;87.13;101873.75;5073686;28;20074;-68
2022/04/14 01:31:53;;;;;;;36.10;31.98;;;;;;;11.39;87.60;101878.06;5073966;28;20122;-68
2022/04/14 01:34:21;;;;;;;37.08;33.15;;;;;;;11.34;88.53;101880.06;5076440;28;20463;-68
2022/04/14 01:36:47;;;;;;;35.80;31.10;;;;;;;11.17;87.15;101850.75;5069778;28;20377;-68
2022/04/14 01:39:13;;;;;;;37.05;32.65;;;;;;;11.26;87.60;101880.44;5078644;28;20166;-68
2022/04/14 01:41:39;;;;;;;41.40;36.95;;;;;;;11.35;89.69;101880.03;5069329;28;20107;-68
2022/04/14 01:44:06;;;;;;;36.72;32.63;;;;;;;11.29;88.53;101879.44;5073234;28;20108;-68
2022/04/14 01:46:31;;;;;;;38.83;33.38;;;;;;;11.16;88.39;101862.34;5070885;28;20044;-68
2022/04/14 01:48:59;;;;;;;36.72;32.28;;;;;;;11.23;87.92;101875.28;5078436;28;20475;-68
2022/04/14 01:51:30;;;;;;;39.17;34.40;;;;;;;11.10;89.16;101871.50;5053865;28;20025;-68
2022/04/14 01:53:55;;;;;;;37.38;33.38;;;;;;;11.23;88.57;101877.94;5070977;28;20498;-68
2022/04/14 01:56:21;;;;;;;38.60;33.63;;;;;;;11.12;89.14;101877.63;5072920;28;20032;-68
2022/04/14 01:58:52;;;;;;;48.10;39.15;;;;;;;11.20;91.03;101879.91;5071119;28;20024;-68
2022/04/14 02:01:21;;;;;;;41.40;36.90;;;;;;;11.17;90.47;101882.72;5069435;28;20028;-68
2022/04/14 02:03:47;;;;;;;43.70;36.37;;;;;;;11.21;89.43;101890.47;5068319;28;20033;-68
2022/04/14 02:06:14;;;;;;;45.42;36.92;;;;;;;11.11;90.31;101890.03;5069397;28;20792;-68
2022/04/14 02:08:40;;;;;;;45.20;38.60;;;;;;;11.11;90.38;101875.88;5069522;28;20515;-68
2022/04/14 02:11:05;;;;;;;54.22;42.53;;;;;;;11.24;91.56;101879.69;5068805;28;20112;-68
2022/04/14 02:13:31;;;;;;;42.38;37.30;;;;;;;11.14;90.24;101887.22;5069498;28;20032;-68
2022/04/14 02:15:57;;;;;;;42.13;35.47;;;;;;;11.14;90.61;101886.38;5073783;28;20020;-68
2022/04/14 02:18:23;;;;;;;46.33;38.78;;;;;;;11.17;90.57;101885.38;5070515;28;20555;-68
2022/04/14 02:20:49;;;;;;;43.00;37.20;;;;;;;11.14;90.71;101884.56;5074766;28;20119;-68
2022/04/14 02:23:14;;;;;;;47.88;37.30;;;;;;;11.14;90.26;101884.56;5085640;28;20042;-69
2022/04/14 02:25:43;;;;;;;40.28;35.85;;;;;;;11.08;90.51;101884.88;5080722;28;20111;-68
2022/04/14 02:28:09;;;;;;;41.70;36.25;;;;;;;11.10;90.48;101890.13;5083858;28;20027;-68
2022/04/14 02:30:37;;;;;;;46.22;37.47;;;;;;;11.05;91.09;101894.81;5084869;28;20036;-68
2022/04/14 02:33:03;;;;;;;45.17;37.25;;;;;;;11.05;90.43;101898.34;5078025;28;20032;-68
2022/04/14 02:35:28;;;;;;;45.70;38.55;;;;;;;11.04;90.57;101893.97;5054817;28;20115;-68
2022/04/14 02:37:56;;;;;;;42.72;36.38;;;;;;;11.04;89.84;101895.75;5074388;28;20028;-68
2022/04/14 02:40:23;;;;;;;47.13;37.20;;;;;;;11.04;90.47;101896.63;5079242;28;20025;-68
2022/04/14 02:42:49;;;;;;;40.63;33.47;;;;;;;11.07;89.77;101901.78;5060266;28;20028;-68
2022/04/14 02:45:17;;;;;;;43.05;36.08;;;;;;;11.06;89.80;101900.09;5089866;28;20027;-68
2022/04/14 02:47:43;;;;;;;44.80;37.97;;;;;;;11.03;89.66;101894.00;5073133;28;20024;-68
2022/04/14 02:50:09;;;;;;;43.60;37.00;;;;;;;11.03;89.70;101899.34;5068815;28;20094;-68
2022/04/14 02:52:37;;;;;;;39.20;34.65;;;;;;;11.08;88.88;101900.84;5073843;28;20111;-68
2022/04/14 02:55:03;;;;;;;46.17;38.72;;;;;;;11.01;89.67;101894.09;5084531;28;20020;-67
2022/04/14 02:57:30;;;;;;;42.85;36.50;;;;;;;11.01;89.03;101901.25;5075021;28;20572;-68
2022/04/14 02:59:56;;;;;;;44.67;36.45;;;;;;;11.02;88.91;101890.50;5070451;28;20024;-68
2022/04/14 03:02:24;;;;;;;42.13;37.00;;;;;;;11.03;88.49;101894.91;5069680;28;20082;-68
2022/04/14 03:04:49;;;;;;;49.95;38.78;;;;;;;11.03;88.49;101886.03;5075172;28;20025;-68
2022/04/14 03:07:15;;;;;;;35.92;31.55;;;;;;;10.99;88.03;101890.66;5074345;28;20398;-68
2022/04/14 03:09:41;;;;;;;40.78;34.40;;;;;;;11.05;87.57;101886.81;5090583;28;20109;-68
2022/04/14 03:12:10;;;;;;;44.03;36.47;;;;;;;10.95;88.03;101890.88;5080285;28;20440;-68
2022/04/14 03:14:37;;;;;;;39.50;35.17;;;;;;;10.87;88.62;101893.91;5088853;28;20031;-68
2022/04/14 03:17:06;;;;;;;40.35;33.35;;;;;;;10.86;88.69;101889.53;5075843;28;20055;-68
2022/04/14 03:19:31;;;;;;;37.22;32.15;;;;;;;10.84;88.15;101886.91;5069501;28;20024;-68
2022/04/14 03:22:00;;;;;;;35.92;31.67;;;;;;;10.85;87.49;101895.75;5074064;28;20070;-68
2022/04/14 03:24:43;;;;;;;32.95;29.55;;;;;;;10.83;87.65;101902.97;5075888;28;20112;-69
2022/04/14 03:27:11;;;;;;;37.05;33.00;;;;;;;10.71;87.70;101899.09;5054077;28;20140;-68
2022/04/14 03:29:36;;;;;;;39.58;34.72;;;;;;;10.63;88.21;101898.59;5077810;28;20040;-68
2022/04/14 03:32:03;;;;;;;38.92;33.42;;;;;;;10.67;88.54;101897.50;5065878;28;20377;-68
2022/04/14 03:34:31;;;;;;;54.08;42.05;;;;;;;10.64;89.84;101897.63;5054637;28;20526;-68
2022/04/14 03:36:57;;;;;;;43.58;36.25;;;;;;;10.58;89.54;101897.91;5039470;28;20068;-68
2022/04/14 03:39:23;;;;;;;65.82;47.72;;;;;;;10.63;92.42;101904.75;5046823;28;20040;-69
2022/04/14 03:41:48;;;;;;;73.93;48.28;;;;;;;10.64;92.77;101900.28;5057575;28;20032;-69
2022/04/14 03:44:16;;;;;;;63.97;46.97;;;;;;;10.61;92.49;101903.09;5048672;28;20562;-68
2022/04/14 03:46:42;;;;;;;59.47;46.50;;;;;;;10.58;92.66;101897.91;5070090;28;20043;-68
2022/04/14 03:49:08;;;;;;;63.03;49.58;;;;;;;10.64;93.35;101892.31;5036138;28;20423;-68
2022/04/14 03:51:38;;;;;;;79.50;49.47;;;;;;;10.65;94.09;101902.91;5020283;28;20032;-68
2022/04/14 03:54:04;;;;;;;68.22;49.42;;;;;;;10.71;94.59;101896.44;5078632;28;20028;-68
2022/04/14 03:56:29;;;;;;;66.07;50.03;;;;;;;10.71;95.17;101891.09;5070595;28;20097;-69
2022/04/14 03:58:55;;;;;;;72.32;49.40;;;;;;;10.73;94.79;101889.22;5083549;28;20020;-68
2022/04/14 04:01:21;;;;;;;66.85;48.80;;;;;;;10.83;94.70;101885.19;5072857;28;20028;-68
2022/04/14 04:03:48;;;;;;;92.40;49.67;;;;;;;10.82;94.77;101890.59;5079388;28;20124;-68
2022/04/14 04:06:13;;;;;;;70.75;47.97;;;;;;;10.80;94.12;101901.31;5084753;28;20040;-68
2022/04/14 04:08:41;;;;;;;80.20;48.03;;;;;;;10.83;94.27;101898.50;5072806;28;20052;-68
2022/04/14 04:11:09;;;;;;;114.20;45.03;;;;;;;10.80;94.52;101906.63;5073958;28;20674;-68
2022/04/14 04:13:35;;;;;;;104.70;44.05;;;;;;;10.79;94.50;101904.91;5073779;28;20036;-68
2022/04/14 04:16:01;;;;;;;112.63;44.00;;;;;;;10.76;94.73;101904.19;5073891;28;20017;-68
2022/04/14 04:18:30;;;;;;;116.32;43.10;;;;;;;10.77;94.68;101911.25;5071035;28;20024;-69
2022/04/14 04:20:58;;;;;;;71.75;43.30;;;;;;;10.77;95.26;101913.91;5071276;28;20402;-68
2022/04/14 04:23:24;;;;;;;93.35;44.15;;;;;;;10.74;95.05;101919.38;5073036;28;20638;-70
2022/04/14 04:25:50;;;;;;;81.40;43.03;;;;;;;10.69;94.88;101915.13;5088060;28;20088;-68
2022/04/14 04:28:15;;;;;;;89.65;41.45;;;;;;;10.68;94.81;101918.72;5076022;28;20063;-68
2022/04/14 04:30:44;;;;;;;53.97;41.22;;;;;;;10.73;95.03;101918.50;5075949;28;20058;-69
2022/04/14 04:33:13;;;;;;;92.80;40.55;;;;;;;10.71;94.79;101919.50;5071759;28;20035;-68
2022/04/14 04:35:38;;;;;;;86.28;40.95;;;;;;;10.70;94.64;101921.28;5072029;28;20043;-68
2022/04/14 04:38:06;;;;;;;61.47;40.75;;;;;;;10.69;95.10;101927.56;5071195;28;20483;-68
2022/04/14 04:40:32;;;;;;;57.92;40.80;;;;;;;10.67;94.87;101926.75;5037088;28;20036;-69
2022/04/14 04:43:00;;;;;;;78.30;38.75;;;;;;;10.63;94.58;101930.50;5074127;28;20481;-68
2022/04/14 04:45:26;;;;;;;81.47;39.53;;;;;;;10.61;94.52;101932.34;5086300;28;20028;-68
2022/04/14 04:47:51;;;;;;;99.88;38.10;;;;;;;10.54;94.47;101922.94;5071784;28;20115;-69
2022/04/14 04:50:17;;;;;;;107.15;39.03;;;;;;;10.54;94.60;101928.28;5070238;28;20502;-68
2022/04/14 04:52:43;;;;;;;58.25;39.22;;;;;;;10.55;94.98;101938.81;5073429;28;20495;-68
2022/04/14 04:55:11;;;;;;;80.38;40.75;;;;;;;10.49;94.79;101935.59;5077319;28;20026;-68
2022/04/14 04:57:37;;;;;;;78.78;39.42;;;;;;;10.46;94.49;101948.06;5077000;28;20395;-69
2022/04/14 05:00:04;;;;;;;89.15;40.53;;;;;;;10.46;94.70;101947.22;5070112;28;20035;-69
2022/04/14 05:02:30;;;;;;;52.97;39.20;;;;;;;10.44;94.54;101934.00;5071059;28;20055;-68
2022/04/14 05:04:56;;;;;;;119.90;40.88;;;;;;;10.41;94.43;101949.22;5071443;28;20107;-69
2022/04/14 05:07:21;;;;;;;59.97;40.00;;;;;;;10.45;95.05;101949.03;5069843;28;20050;-68
2022/04/14 05:09:47;;;;;;;68.40;40.85;;;;;;;10.41;94.44;101939.47;5039598;28;20044;-68
2022/04/14 05:12:12;;;;;;;97.85;41.67;;;;;;;10.29;94.55;101939.13;5069903;28;20024;-68
2022/04/14 05:14:37;;;;;;;67.90;40.30;;;;;;;10.37;94.81;101943.19;5070947;28;20043;-68
2022/04/14 05:17:03;;;;;;;48.55;42.65;;;;;;;10.42;94.69;101946.50;5071579;28;20104;-68
2022/04/14 05:19:31;;;;;;;59.50;40.50;;;;;;;10.38;95.02;101947.59;5053466;28;20025;-69
2022/04/14 05:21:57;;;;;;;62.60;38.58;;;;;;;10.34;94.33;101950.44;5070958;28;20026;-68
2022/04/14 05:24:23;;;;;;;68.13;40.30;;;;;;;10.40;94.61;101952.81;5034505;28;20111;-69
2022/04/14 05:26:49;;;;;;;67.43;39.67;;;;;;;10.39;94.34;101959.94;5071606;28;20495;-68
2022/04/14 05:29:14;;;;;;;57.75;37.70;;;;;;;10.38;93.74;101952.00;5069322;28;20036;-68
2022/04/14 05:31:40;;;;;;;49.38;37.80;;;;;;;10.39;93.53;101957.28;5071526;28;20456;-68
2022/04/14 05:34:06;;;;;;;42.72;36.70;;;;;;;10.38;93.40;101960.88;5069856;28;20028;-69
2022/04/14 05:36:31;;;;;;;46.53;36.90;;;;;;;10.40;93.33;101969.63;5070723;28;20024;-68
2022/04/14 05:38:57;;;;;;;46.42;37.40;;;;;;;10.28;92.77;101958.69;5057254;28;20123;-68
2022/04/14 05:41:25;;;;;;;46.35;37.42;;;;;;;10.37;93.21;101969.78;5065612;28;20415;-69
2022/04/14 05:43:51;;;;;;;39.95;35.67;;;;;;;10.37;92.81;101975.09;5069390;28;20028;-68
2022/04/14 05:46:19;;;;;;;41.40;34.85;;;;;;;10.37;92.99;101982.22;5072618;28;20024;-68
2022/04/14 05:48:45;;;;;;;38.60;34.40;;;;;;;10.36;92.54;101981.34;5052782;28;20033;-68
2022/04/14 05:51:11;;;;;;;39.67;34.85;;;;;;;10.38;92.95;101981.25;5079676;28;20054;-68
2022/04/14 05:53:37;;;;;;;40.22;35.85;;;;;;;10.45;92.83;101983.59;5076612;28;20024;-68
2022/04/14 05:56:02;;;;;;;39.13;34.40;;;;;;;10.51;92.68;101978.94;5069707;28;20483;-68
2022/04/14 05:58:28;;;;;;;42.05;34.90;;;;;;;10.54;92.74;101982.31;5036207;28;20146;-68
2022/04/14 06:00:53;;;;;;;40.33;35.60;;;;;;;10.57;92.61;101984.00;5075626;28;20044;-68
2022/04/14 06:03:19;;;;;;;39.70;35.33;;;;;;;10.58;91.83;101991.88;5073734;28;20045;-68
2022/04/14 06:05:45;;;;;;;38.95;33.90;;;;;;;10.54;92.16;101979.66;5073107;28;20048;-68
2022/04/14 06:08:16;;;;;;;38.22;34.13;;;;;;;10.57;92.93;101987.50;5071824;28;20236;-68
2022/04/14 06:10:41;;;;;;;38.53;34.40;;;;;;;10.61;92.42;101991.75;5080673;28;20038;-69
2022/04/14 06:13:07;;;;;;;36.58;32.78;;;;;;;10.68;91.84;101989.69;5042650;28;20028;-68
2022/04/14 06:15:32;;;;;;;40.50;34.15;;;;;;;10.69;92.27;101981.63;5069284;28;20546;-68
2022/04/14 06:18:01;;;;;;;38.17;33.58;;;;;;;10.81;92.11;101988.19;5085375;28;20123;-68
2022/04/14 06:20:26;;;;;;;39.22;34.92;;;;;;;10.87;92.03;101979.06;5069245;28;20032;-68
2022/04/14 06:22:52;;;;;;;38.40;34.40;;;;;;;11.01;92.07;101984.63;5076669;28;20035;-68
2022/04/14 06:25:22;;;;;;;41.13;34.70;;;;;;;11.12;91.96;101994.78;5075597;28;20085;-68
2022/04/14 06:27:48;;;;;;;;;;;;;;;11.30;91.29;101988.56;5069821;28;20387;-68
2022/04/14 06:30:15;;;;;;;37.42;33.28;;;;;;;11.29;90.88;101991.28;5070325;28;19913;-68
2022/04/14 06:32:41;;;;;;;37.40;33.33;;;;;;;11.38;91.21;101990.84;5079994;28;20020;-68
2022/04/14 06:35:12;;;;;;;38.03;33.28;;;;;;;11.47;90.45;101992.19;5070814;28;20105;-68
2022/04/14 06:37:40;;;;;;;35.65;31.95;;;;;;;11.39;90.31;101965.97;5068935;28;20024;-69
2022/04/14 06:40:06;;;;;;;35.92;32.13;;;;;;;11.65;89.86;101996.66;5075043;28;20036;-68
2022/04/14 06:42:32;;;;;;;38.38;33.20;;;;;;;11.80;89.96;101998.56;5067115;28;20032;-68
2022/04/14 06:45:00;;;;;;;37.13;32.78;;;;;;;11.93;89.60;102000.63;5079385;28;20021;-68
2022/04/14 06:47:29;;;;;;;35.28;31.58;;;;;;;12.08;89.23;102002.53;5070853;28;20476;-68
2022/04/14 06:49:55;;;;;;;35.38;31.05;;;;;;;12.17;88.50;102001.19;5084169;28;20032;-69
2022/04/14 06:52:21;;;;;;;35.13;31.33;;;;;;;12.28;89.00;101998.84;5090973;28;20024;-68
2022/04/14 06:54:51;;;;;;;34.92;31.08;;;;;;;12.37;88.55;102001.03;5074906;28;20468;-68
2022/04/14 06:57:18;;;;;;;33.77;30.33;;;;;;;12.57;88.14;102000.00;5072666;28;20471;-68
2022/04/14 06:59:43;;;;;;;34.83;31.10;;;;;;;12.73;87.40;102006.25;5074692;28;20111;-69
2022/04/14 07:02:11;;;;;;;33.47;30.00;;;;;;;12.82;86.75;102001.34;5073374;28;20115;-69
2022/04/14 07:04:36;;;;;;;32.42;28.95;;;;;;;12.89;85.81;101995.59;5056059;28;20377;-69
2022/04/14 07:07:02;;;;;;;34.35;28.30;;;;;;;13.04;85.28;101999.22;5071520;28;20032;-69
2022/04/14 07:09:34;;;;;;;33.50;29.98;;;;;;;13.17;86.66;102000.25;5072844;28;20127;-69
2022/04/14 07:12:03;;;;;;;31.17;27.90;;;;;;;13.23;84.53;101992.88;5075626;28;20036;-69
2022/04/14 07:14:31;;;;;;;32.83;29.25;;;;;;;13.28;84.07;101994.38;5080433;28;20123;-69
2022/04/14 07:16:58;;;;;;;35.58;30.15;;;;;;;13.39;85.42;102005.31;5082428;28;20033;-69
2022/04/14 07:19:23;;;;;;;36.47;30.05;;;;;;;13.49;84.20;102007.47;5073947;28;20100;-69
2022/04/14 07:21:49;;;;;;;33.45;29.80;;;;;;;13.60;83.14;102010.41;5071860;28;20665;-69
2022/04/14 07:24:15;;;;;;;35.45;30.05;;;;;;;13.67;84.10;102009.09;5054467;28;20514;-69
2022/04/14 07:26:40;;;;;;;34.55;29.63;;;;;;;13.80;82.91;102014.59;5072485;28;20021;-69
2022/04/14 07:29:06;;;;;;;33.38;29.27;;;;;;;13.89;82.67;102010.53;5073530;28;20115;-69
2022/04/14 07:31:32;;;;;;;35.92;31.58;;;;;;;14.05;82.08;102016.69;5083972;28;20032;-69
2022/04/14 07:33:58;;;;;;;33.55;29.00;;;;;;;14.04;81.19;102009.63;5075046;28;20024;-68
2022/04/14 07:36:25;;;;;;;34.15;29.50;;;;;;;14.12;81.67;102007.38;5073061;28;20379;-69
2022/04/14 07:38:50;;;;;;;33.05;28.70;;;;;;;14.24;80.25;102016.47;5067155;28;20025;-68
2022/04/14 07:41:16;;;;;;;32.92;28.60;;;;;;;14.27;80.58;102018.97;5075642;28;20111;-68
2022/04/14 07:43:42;;;;;;;31.52;27.83;;;;;;;14.37;80.50;102016.59;5073003;28;20475;-68
2022/04/14 07:46:07;;;;;;;28.52;25.50;;;;;;;14.51;78.71;102024.66;5072979;28;20095;-68
2022/04/14 07:48:33;;;;;;;29.50;24.92;;;;;;;14.54;76.95;102024.50;5078806;28;20506;-69
2022/04/14 07:51:01;;;;;;;32.03;24.60;;;;;;;14.65;77.70;102019.34;5038101;28;20458;-69
2022/04/14 07:53:26;;;;;;;24.90;22.13;;;;;;;14.64;75.95;102016.75;5071066;28;20610;-68
2022/04/14 07:55:52;;;;;;;25.80;21.85;;;;;;;14.65;75.46;102021.19;5071286;28;20129;-68
2022/04/14 07:58:20;;;;;;;23.77;20.80;;;;;;;14.74;74.50;102024.13;5073829;28;20124;-69
2022/04/14 08:00:46;;;;;;;24.13;20.13;;;;;;;14.87;75.94;102020.69;5071134;28;20028;-69
2022/04/14 08:03:12;;;;;;;21.75;17.77;;;;;;;15.07;73.45;102024.81;5071175;28;20037;-69
2022/04/14 08:05:41;;;;;;;21.33;18.17;;;;;;;15.18;72.20;102033.03;5069736;28;20035;-69
2022/04/14 08:08:12;;;;;;;19.73;17.52;;;;;;;15.24;71.49;102023.75;5075622;28;20467;-68
2022/04/14 08:10:38;;;;;;;22.05;17.33;;;;;;;15.36;70.01;102029.16;5074173;28;20024;-69
2022/04/14 08:13:04;;;;;;;20.27;17.48;;;;;;;15.42;71.37;102026.09;5075330;28;20108;-69
2022/04/14 08:15:30;;;;;;;20.23;17.55;;;;;;;15.60;71.80;102031.22;5072377;28;20112;-69
2022/04/14 08:17:57;;;;;;;21.13;16.75;;;;;;;15.62;69.37;102027.47;5070201;28;20546;-69
2022/04/14 08:20:23;;;;;;;20.48;18.05;;;;;;;15.79;70.48;102036.25;5071247;28;20036;-69
2022/04/14 08:22:58;;;;;;;19.88;17.85;;;;;;;15.98;70.96;102027.88;5074406;28;20036;-69
2022/04/14 08:25:28;;;;;;;20.45;17.65;;;;;;;16.09;68.96;102026.19;5071491;28;20083;-68
2022/04/14 08:27:54;;;;;;;18.65;15.70;;;;;;;16.23;68.25;102027.91;5072609;28;20021;-69
2022/04/14 08:30:22;;;;;;;21.33;16.67;;;;;;;16.24;67.10;102029.66;5078559;28;20090;-69
2022/04/14 08:32:49;;;;;;;16.90;15.10;;;;;;;16.38;67.05;102036.72;5066547;28;20043;-69
2022/04/14 08:35:15;;;;;;;17.75;13.85;;;;;;;16.46;65.26;102039.75;5070778;28;20484;-69
2022/04/14 08:37:42;;;;;;;15.98;13.70;;;;;;;16.58;65.08;102040.75;5069846;28;20027;-69
2022/04/14 08:40:10;;;;;;;14.43;12.93;;;;;;;16.70;64.59;102033.66;5075198;28;20028;-69
2022/04/14 08:42:42;;;;;;;19.50;14.13;;;;;;;16.89;65.33;102038.66;5077791;28;20049;-69
2022/04/14 08:45:12;;;;;;;13.30;11.23;;;;;;;16.96;62.23;102031.84;5070832;28;20059;-69
2022/04/14 08:47:42;;;;;;;14.10;12.60;;;;;;;17.07;63.90;102031.09;5077403;28;20056;-69
2022/04/14 08:50:14;;;;;;;13.48;12.02;;;;;;;17.19;63.75;102024.84;5071413;28;20051;-69
2022/04/14 08:52:40;;;;;;;16.35;11.80;;;;;;;17.36;62.47;102029.00;5075949;28;20024;-69
2022/04/14 08:55:10;;;;;;;13.43;11.25;;;;;;;17.46;62.70;102030.88;5092256;28;20544;-69
2022/04/14 08:57:40;;;;;;;14.95;11.60;;;;;;;17.69;61.66;102029.19;5071878;28;20054;-69
2022/04/14 09:00:10;;;;;;;13.57;11.18;;;;;;;17.53;59.39;102028.63;5070363;28;20028;-69
2022/04/14 09:02:36;;;;;;;13.23;10.80;;;;;;;17.61;60.24;102036.09;5070025;28;20094;-69
2022/04/14 09:05:05;;;;;;;14.15;12.07;;;;;;;17.73;60.49;102027.13;5072127;28;20036;-70
2022/04/14 09:07:31;;;;;;;13.73;11.05;;;;;;;17.96;60.55;102027.28;5071690;28;20032;-69
2022/04/14 09:09:57;;;;;;;11.48;10.27;;;;;;;18.05;57.99;102031.97;5071199;28;20040;-69
2022/04/14 09:12:23;;;;;;;13.05;9.65;;;;;;;18.05;58.97;102027.44;5077017;28;20038;-70
2022/04/14 09:14:49;;;;;;;14.20;11.27;;;;;;;18.10;58.93;102041.41;5072290;28;20040;-69
2022/04/14 09:17:15;;;;;;;13.57;10.57;;;;;;;18.23;60.27;102040.47;5070574;28;20041;-69
2022/04/14 09:19:41;;;;;;;15.40;10.68;;;;;;;18.43;59.08;102031.72;5072093;28;20124;-69
2022/04/14 09:22:11;;;;;;;14.27;10.57;;;;;;;18.55;58.67;102027.22;5058337;28;20028;-69
2022/04/14 09:24:43;;;;;;;17.05;10.48;;;;;;;18.76;57.92;102017.47;5072721;28;20409;-69
2022/04/14 09:27:21;;;;;;;13.23;9.20;;;;;;;18.80;56.41;102013.56;5071038;28;20063;-69
2022/04/14 09:29:48;;;;;;;11.65;9.95;;;;;;;18.89;55.39;102017.38;5071876;28;20516;-69
2022/04/14 09:32:44;;;;;;;11.45;9.60;;;;;;;19.11;57.80;102026.41;5071897;28;20111;-69
2022/04/14 09:35:17;;;;;;;13.30;10.50;;;;;;;19.21;56.08;102016.63;5071401;28;20089;-69
2022/04/14 09:37:42;;;;;;;12.05;9.57;;;;;;;19.37;55.20;102010.81;5070090;28;20035;-69
2022/04/14 09:40:09;;;;;;;13.57;10.25;;;;;;;19.38;54.31;102002.59;5071499;28;20111;-69
2022/04/14 09:42:39;;;;;;;16.98;10.50;;;;;;;19.42;55.07;101993.28;5077855;28;20074;-69
2022/04/14 09:45:23;;;;;;;13.32;9.00;;;;;;;19.62;52.89;102007.81;5068697;28;20490;-69
2022/04/14 09:47:53;;;;;;;9.93;7.88;;;;;;;19.64;52.71;101991.50;5068467;28;20032;-70
2022/04/14 09:50:29;;;;;;;12.23;8.60;;;;;;;19.73;52.88;102005.09;5053718;28;20111;-69
2022/04/14 09:53:05;;;;;;;12.73;8.93;;;;;;;19.81;52.56;101998.22;5069829;28;20479;-69
2022/04/14 09:55:35;;;;;;;12.48;8.38;;;;;;;19.89;52.08;101999.28;5071572;28;20021;-69
2022/04/14 09:58:14;;;;;;;9.57;7.70;;;;;;;19.82;49.78;101992.66;5069954;28;20475;-69
2022/04/14 10:00:44;;;;;;;10.45;6.60;;;;;;;19.85;50.31;101994.25;5071454;28;20020;-69
2022/04/14 10:03:14;;;;;;;11.68;7.13;;;;;;;20.09;50.87;101994.91;5071195;28;20467;-70
2022/04/14 10:05:42;;;;;;;10.13;8.68;;;;;;;20.19;50.90;101990.41;5069722;28;20032;-70
2022/04/14 10:08:08;;;;;;;10.18;7.95;;;;;;;20.51;50.58;101994.88;5070114;28;20111;-69
2022/04/14 10:10:41;;;;;;;9.18;6.00;;;;;;;20.47;46.51;101990.75;5079330;28;20131;-69
2022/04/14 10:13:10;;;;;;;8.15;5.97;;;;;;;20.13;46.23;102001.75;5085349;28;20020;-69
2022/04/14 10:15:41;;;;;;;7.10;4.55;;;;;;;20.00;45.66;101998.38;5087135;28;20040;-69
2022/04/14 10:18:09;;;;;;;7.47;4.82;;;;;;;20.08;46.38;102003.97;5073206;28;20103;-70
2022/04/14 10:20:36;;;;;;;6.15;4.10;;;;;;;20.14;43.69;102005.28;5071137;28;20107;-70
2022/04/14 10:23:02;;;;;;;7.90;4.80;;;;;;;19.96;45.49;102024.78;5068448;28;20446;-69
2022/04/14 10:25:28;;;;;;;6.28;4.10;;;;;;;19.83;45.90;102028.66;5086723;28;20399;-69
2022/04/14 10:27:58;;;;;;;4.82;4.13;;;;;;;19.91;45.81;102029.72;5079272;28;20479;-69
2022/04/14 10:30:24;;;;;;;5.78;4.35;;;;;;;19.61;44.37;102030.38;5075299;28;20028;-69
2022/04/14 10:32:53;;;;;;;8.18;5.10;;;;;;;19.64;46.14;102031.97;5069327;28;20028;-70
2022/04/14 10:35:18;;;;;;;6.05;4.65;;;;;;;20.01;46.25;102026.25;5071045;28;20028;-69
2022/04/14 10:37:59;;;;;;;8.18;5.40;;;;;;;20.22;46.82;102023.56;5080711;28;20032;-70
2022/04/14 10:40:25;;;;;;;8.70;6.80;;;;;;;20.09;44.69;102035.41;5074693;28;20036;-69
2022/04/14 10:42:53;;;;;;;6.13;5.45;;;;;;;20.07;45.47;102041.94;5058387;28;20027;-70
2022/04/14 10:45:23;;;;;;;7.05;5.05;;;;;;;20.13;44.98;102049.53;5069837;28;20036;-68
2022/04/14 10:47:58;;;;;;;6.22;4.90;;;;;;;20.35;45.15;102038.59;5080538;28;20032;-69
2022/04/14 10:50:24;;;;;;;6.53;4.40;;;;;;;20.55;43.43;102046.88;5070347;28;20093;-70
2022/04/14 10:53:29;;;;;;;6.22;3.85;;;;;;;20.80;44.91;102046.47;5079824;28;20032;-69
2022/04/14 10:55:54;;;;;;;5.78;4.45;;;;;;;20.54;43.13;102037.06;5070001;28;20495;-70
2022/04/14 10:58:26;;;;;;;5.47;3.97;;;;;;;20.49;44.52;102042.81;5075524;28;20032;-70
2022/04/14 11:00:51;;;;;;;5.85;4.30;;;;;;;20.62;43.11;102035.41;5090050;28;20077;-69
2022/04/14 11:03:19;;;;;;;7.13;4.57;;;;;;;20.81;44.34;102031.94;5081380;28;20375;-70
2022/04/14 11:05:53;;;;;;;5.45;4.68;;;;;;;20.89;43.31;102030.41;5078594;28;20097;-69
2022/04/14 11:08:29;;;;;;;5.78;4.13;;;;;;;21.18;42.24;102022.38;5069588;28;20024;-70
2022/04/14 11:11:11;;;;;;;4.03;3.20;;;;;;;21.61;42.68;102029.38;5074627;28;20032;-70
2022/04/14 11:13:55;;;;;;;5.00;3.05;;;;;;;22.11;41.24;102031.97;5072907;28;20039;-69